createdAt,value
2019-02-23T00:01:24.365Z,37.60
2019-02-23T00:03:54.784Z,34.10
2019-02-23T00:06:29.704Z,35.30
2019-02-23T00:08:54.656Z,35.87
2019-02-23T00:11:27.068Z,35.77
2019-02-23T00:14:32.188Z,37.17
2019-02-23T00:17:01.165Z,37.53
2019-02-23T00:19:30.462Z,35.47
2019-02-23T00:21:59.473Z,36.80
2019-02-23T00:24:28.422Z,36.47
2019-02-23T00:26:57.351Z,36.23
2019-02-23T00:29:26.586Z,37.30
2019-02-23T00:31:55.548Z,35.33
2019-02-23T00:34:24.770Z,36.37
2019-02-23T00:36:53.670Z,36.67
2019-02-23T00:39:22.579Z,36.50
2019-02-23T00:41:55.029Z,36.53
2019-02-23T00:44:25.974Z,36.70
2019-02-23T00:46:55.597Z,37.13
2019-02-23T00:49:35.528Z,34.50
2019-02-23T00:51:57.471Z,37.77
2019-02-23T00:54:26.698Z,34.70
2019-02-23T00:56:59.257Z,36.07
2019-02-23T00:59:28.545Z,37.40
2019-02-23T01:01:57.672Z,35.97
2019-02-23T01:04:26.580Z,38.97
2019-02-23T01:06:55.497Z,38.67
2019-02-23T01:09:26.674Z,37.30
2019-02-23T01:11:56.180Z,37.10
2019-02-23T01:14:25.356Z,37.20
2019-02-23T01:16:54.424Z,36.63
2019-02-23T01:19:23.998Z,36.97
2019-02-23T01:21:56.079Z,36.47
2019-02-23T01:24:25.047Z,37.77
2019-02-23T01:26:54.340Z,36.20
2019-02-23T01:29:23.769Z,36.50
2019-02-23T01:31:53.476Z,37.87
2019-02-23T01:34:22.764Z,38.77
2019-02-23T01:36:51.838Z,37.13
2019-02-23T01:39:21.341Z,36.27
2019-02-23T01:41:50.510Z,36.80
2019-02-23T01:44:21.237Z,37.00
2019-02-23T01:46:50.051Z,36.80
2019-02-23T01:49:19.852Z,36.57
2019-02-23T01:51:48.785Z,37.20
2019-02-23T01:54:21.099Z,37.03
2019-02-23T01:56:50.316Z,37.47
2019-02-23T01:59:20.010Z,37.43
2019-02-23T02:01:49.328Z,38.33
2019-02-23T02:04:20.116Z,37.83
2019-02-23T02:06:49.130Z,35.97
2019-02-23T02:09:18.096Z,37.67
2019-02-23T02:11:47.003Z,36.03
2019-02-23T02:14:16.391Z,38.00
2019-02-23T02:16:45.321Z,36.80
2019-02-23T02:19:14.251Z,37.93
2019-02-23T02:21:44.443Z,37.07
2019-02-23T02:24:14.423Z,38.63
2019-02-23T02:27:14.455Z,38.53
2019-02-23T02:29:43.449Z,37.27
2019-02-23T02:32:12.625Z,37.43
2019-02-23T02:34:41.529Z,37.10
2019-02-23T02:37:10.720Z,38.63
2019-02-23T02:39:39.647Z,37.60
2019-02-23T02:42:09.426Z,38.03
2019-02-23T02:44:38.338Z,38.10
2019-02-23T02:47:07.155Z,36.60
2019-02-23T02:50:09.904Z,40.27
2019-02-23T02:52:39.146Z,38.33
2019-02-23T02:55:09.051Z,36.93
2019-02-23T02:57:38.069Z,37.73
2019-02-23T03:00:09.077Z,37.20
2019-02-23T03:02:38.169Z,38.30
2019-02-23T03:05:08.378Z,36.53
2019-02-23T03:10:40.932Z,36.80
2019-02-23T03:13:10.347Z,36.63
2019-02-23T03:15:39.190Z,38.07
2019-02-23T03:18:08.076Z,36.23
2019-02-23T03:20:37.119Z,36.77
2019-02-23T03:23:06.150Z,36.47
2019-02-23T03:25:35.086Z,36.03
2019-02-23T03:28:04.086Z,35.27
2019-02-23T03:30:33.119Z,35.07
2019-02-23T03:33:02.035Z,37.27
2019-02-23T03:35:32.330Z,36.37
2019-02-23T03:38:01.323Z,35.97
2019-02-23T03:40:30.256Z,35.97
2019-02-23T03:42:59.176Z,36.97
2019-02-23T03:45:28.156Z,36.17
2019-02-23T03:47:57.330Z,36.37
2019-02-23T03:50:26.357Z,36.07
2019-02-23T03:52:55.304Z,36.90
2019-02-23T03:55:25.530Z,36.50
2019-02-23T03:57:54.732Z,37.00
2019-02-23T04:00:23.691Z,34.93
2019-02-23T04:02:52.614Z,35.27
2019-02-23T04:05:21.505Z,35.07
2019-02-23T04:07:50.356Z,33.77
2019-02-23T04:10:19.578Z,36.37
2019-02-23T04:12:49.466Z,35.70
2019-02-23T04:15:18.704Z,36.13
2019-02-23T04:17:47.536Z,34.53
2019-02-23T04:20:17.300Z,34.97
2019-02-23T04:22:46.200Z,33.93
2019-02-23T04:25:15.105Z,35.00
2019-02-23T04:27:47.035Z,34.53
2019-02-23T04:30:16.885Z,33.87
2019-02-23T04:32:51.812Z,33.77
2019-02-23T04:35:20.720Z,34.67
2019-02-23T04:37:49.681Z,34.13
2019-02-23T04:40:18.483Z,36.17
2019-02-23T04:42:47.461Z,33.87
2019-02-23T04:45:16.287Z,35.37
2019-02-23T04:47:45.380Z,34.53
2019-02-23T04:50:14.329Z,33.67
2019-02-23T04:52:43.188Z,33.43
2019-02-23T04:55:13.146Z,32.87
2019-02-23T04:57:41.990Z,33.57
2019-02-23T05:00:12.181Z,34.23
2019-02-23T05:02:41.704Z,33.50
2019-02-23T05:05:11.053Z,32.97
2019-02-23T05:07:40.256Z,34.57
2019-02-23T05:10:09.535Z,33.43
2019-02-23T05:12:38.855Z,33.47
2019-02-23T05:15:09.131Z,35.73
2019-02-23T05:17:38.221Z,34.63
2019-02-23T05:20:08.551Z,33.37
2019-02-23T05:22:37.412Z,33.17
2019-02-23T05:25:06.385Z,33.30
2019-02-23T05:28:09.754Z,33.17
2019-02-23T05:30:38.975Z,34.27
2019-02-23T05:33:10.173Z,33.47
2019-02-23T05:35:39.141Z,34.33
2019-02-23T05:38:08.140Z,34.10
2019-02-23T05:40:38.308Z,32.60
2019-02-23T05:43:07.940Z,34.37
2019-02-23T05:45:36.741Z,33.47
2019-02-23T05:50:40.208Z,33.67
2019-02-23T05:53:09.081Z,34.23
2019-02-23T05:55:37.903Z,33.93
2019-02-23T05:58:06.720Z,34.23
2019-02-23T06:00:35.721Z,34.30
2019-02-23T06:03:04.722Z,35.50
2019-02-23T06:05:34.536Z,34.70
2019-02-23T06:08:03.908Z,34.07
2019-02-23T06:10:37.363Z,35.47
2019-02-23T06:13:06.571Z,34.10
2019-02-23T06:15:36.130Z,34.90
2019-02-23T06:18:05.426Z,34.80
2019-02-23T06:20:34.626Z,33.37
2019-02-23T06:23:04.783Z,32.10
2019-02-23T06:25:34.924Z,34.13
2019-02-23T06:28:04.233Z,33.13
2019-02-23T06:30:33.151Z,33.47
2019-02-23T06:33:02.074Z,33.13
2019-02-23T06:35:32.766Z,35.23
2019-02-23T06:38:01.651Z,34.80
2019-02-23T06:40:33.817Z,34.77
2019-02-23T06:43:03.016Z,33.23
2019-02-23T06:45:33.436Z,33.23
2019-02-23T06:48:02.597Z,33.43
2019-02-23T06:50:33.299Z,33.00
2019-02-23T06:53:05.450Z,33.47
2019-02-23T06:55:34.358Z,33.53
2019-02-23T06:58:03.648Z,34.07
2019-02-23T07:00:32.621Z,33.63
2019-02-23T07:03:01.767Z,33.00
2019-02-23T07:08:05.194Z,34.63
2019-02-23T07:10:34.138Z,34.53
2019-02-23T07:13:03.010Z,33.97
2019-02-23T07:15:31.933Z,36.80
2019-02-23T07:18:01.334Z,36.03
2019-02-23T07:20:43.671Z,34.57
2019-02-23T07:23:41.797Z,34.87
2019-02-23T07:26:14.219Z,36.23
2019-02-23T07:28:43.109Z,36.17
2019-02-23T07:31:12.403Z,36.80
2019-02-23T07:33:42.018Z,36.43
2019-02-23T07:36:14.098Z,35.93
2019-02-23T07:38:46.386Z,35.83
2019-02-23T07:41:15.295Z,36.93
2019-02-23T07:43:44.921Z,35.37
2019-02-23T07:46:14.063Z,34.50
2019-02-23T07:48:43.391Z,37.20
2019-02-23T07:51:12.742Z,35.03
2019-02-23T07:53:44.486Z,35.47
2019-02-23T07:56:13.387Z,35.20
2019-02-23T07:58:43.200Z,36.80
2019-02-23T08:01:23.791Z,34.80
2019-02-23T08:03:53.725Z,34.63
2019-02-23T08:06:27.957Z,36.60
2019-02-23T08:08:57.678Z,34.30
2019-02-23T08:11:27.118Z,35.80
2019-02-23T08:13:56.395Z,35.93
2019-02-23T08:16:26.172Z,34.20
2019-02-23T08:18:55.390Z,35.33
2019-02-23T08:21:29.045Z,33.70
2019-02-23T08:24:01.779Z,32.97
2019-02-23T08:26:31.095Z,31.70
2019-02-23T08:29:00.035Z,31.03
2019-02-23T08:31:28.876Z,31.37
2019-02-23T08:33:57.829Z,29.47
2019-02-23T08:36:27.208Z,29.40
2019-02-23T08:38:56.121Z,28.23
2019-02-23T08:41:25.386Z,27.10
2019-02-23T08:43:54.371Z,27.97
2019-02-23T08:46:23.324Z,25.90
2019-02-23T08:48:53.590Z,26.83
2019-02-23T08:51:22.756Z,25.50
2019-02-23T08:53:52.093Z,24.20
2019-02-23T08:56:22.249Z,24.57
2019-02-23T08:58:51.339Z,24.53
2019-02-23T09:01:20.240Z,24.33
2019-02-23T09:03:49.817Z,22.97
2019-02-23T09:06:18.883Z,24.10
2019-02-23T09:08:53.998Z,24.27
2019-02-23T09:11:23.192Z,24.03
2019-02-23T09:13:53.947Z,22.43
2019-02-23T09:16:23.139Z,22.60
2019-02-23T09:18:52.571Z,21.87
2019-02-23T09:21:22.035Z,22.53
2019-02-23T09:23:51.791Z,21.73
2019-02-23T09:26:21.187Z,21.73
2019-02-23T09:28:50.080Z,22.43
2019-02-23T09:31:19.935Z,21.13
2019-02-23T09:33:49.071Z,21.07
2019-02-23T09:36:18.370Z,22.10
2019-02-23T09:38:47.602Z,21.93
2019-02-23T09:41:17.002Z,21.20
2019-02-23T09:43:46.304Z,21.23
2019-02-23T09:46:15.386Z,19.93
2019-02-23T09:48:44.345Z,19.60
2019-02-23T09:51:13.875Z,20.97
2019-02-23T09:53:42.803Z,21.87
2019-02-23T09:56:12.017Z,20.80
2019-02-23T09:58:41.685Z,21.90
2019-02-23T10:01:11.784Z,28.33
2019-02-23T10:03:41.961Z,22.83
2019-02-23T10:06:11.023Z,25.33
2019-02-23T10:08:39.885Z,21.63
2019-02-23T10:11:09.161Z,23.27
2019-02-23T10:13:38.563Z,20.67
2019-02-23T10:16:07.855Z,19.67
2019-02-23T10:18:36.875Z,21.37
2019-02-23T10:21:06.334Z,19.37
2019-02-23T10:23:35.541Z,18.17
2019-02-23T10:26:04.630Z,19.17
2019-02-23T10:28:33.642Z,19.83
2019-02-23T10:31:03.600Z,18.67
2019-02-23T10:33:32.724Z,20.00
2019-02-23T10:36:02.044Z,21.63
2019-02-23T10:38:31.090Z,25.90
2019-02-23T10:41:01.886Z,21.37
2019-02-23T10:43:31.198Z,20.83
2019-02-23T10:46:00.269Z,19.03
2019-02-23T10:48:29.550Z,18.60
2019-02-23T10:51:00.584Z,17.67
2019-02-23T10:53:33.209Z,18.07
2019-02-23T10:56:02.275Z,17.40
2019-02-23T10:58:35.978Z,17.07
2019-02-23T11:01:07.025Z,17.33
2019-02-23T11:03:36.258Z,19.90
2019-02-23T11:06:06.057Z,17.23
2019-02-23T11:08:35.029Z,18.60
2019-02-23T11:11:08.543Z,19.93
2019-02-23T11:13:38.557Z,17.57
2019-02-23T11:16:11.036Z,16.80
2019-02-23T11:18:40.123Z,17.83
2019-02-23T11:21:09.165Z,17.13
2019-02-23T11:23:44.169Z,16.83
2019-02-23T11:26:08.798Z,17.20
2019-02-23T11:28:37.794Z,18.07
2019-02-23T11:31:11.616Z,17.70
2019-02-23T11:33:42.733Z,17.13
2019-02-23T11:36:11.702Z,15.77
2019-02-23T11:38:40.650Z,16.93
2019-02-23T11:41:09.627Z,16.70
2019-02-23T11:43:38.700Z,15.97
2019-02-23T11:46:08.022Z,17.03
2019-02-23T11:48:37.731Z,16.43
2019-02-23T11:51:13.734Z,15.70
2019-02-23T11:53:42.614Z,16.20
2019-02-23T11:56:11.556Z,16.60
2019-02-23T11:58:40.797Z,16.57
2019-02-23T12:01:10.779Z,15.83
2019-02-23T12:03:40.439Z,15.27
2019-02-23T12:06:09.540Z,15.43
2019-02-23T12:08:38.654Z,16.23
2019-02-23T12:11:08.625Z,16.37
2019-02-23T12:13:37.506Z,15.70
2019-02-23T12:16:06.686Z,15.10
2019-02-23T12:18:35.688Z,16.20
2019-02-23T12:21:06.189Z,15.67
2019-02-23T12:23:35.753Z,15.48
2019-02-23T12:26:06.299Z,15.80
2019-02-23T12:28:35.645Z,15.80
2019-02-23T12:31:04.496Z,16.37
2019-02-23T12:33:35.022Z,14.03
2019-02-23T12:36:03.987Z,15.13
2019-02-23T12:38:33.376Z,14.53
2019-02-23T12:41:02.604Z,15.97
2019-02-23T12:43:32.132Z,14.83
2019-02-23T12:46:01.082Z,15.20
2019-02-23T12:48:30.163Z,14.63
2019-02-23T12:50:59.966Z,15.50
2019-02-23T12:53:29.034Z,14.00
2019-02-23T12:58:38.377Z,13.98
2019-02-23T13:01:07.875Z,14.78
2019-02-23T13:03:42.815Z,14.53
2019-02-23T13:06:11.731Z,14.50
2019-02-23T13:09:14.999Z,14.73
2019-02-23T13:11:53.522Z,15.20
2019-02-23T13:14:44.010Z,15.37
2019-02-23T13:17:54.587Z,16.00
2019-02-23T13:20:53.782Z,14.17
2019-02-23T13:23:52.661Z,14.23
2019-02-23T13:27:00.366Z,14.73
2019-02-23T13:30:13.353Z,14.55
2019-02-23T13:33:17.828Z,15.13
2019-02-23T13:36:37.087Z,13.83
2019-02-23T13:39:25.318Z,14.18
2019-02-23T13:42:17.376Z,13.35
2019-02-23T13:45:35.276Z,13.98
2019-02-23T13:48:37.355Z,12.78
2019-02-23T13:51:40.429Z,12.20
2019-02-23T13:55:05.845Z,13.50
2019-02-23T13:58:32.572Z,13.85
2019-02-23T14:01:49.115Z,14.43
2019-02-23T14:08:28.476Z,13.10
2019-02-23T14:11:42.600Z,13.38
2019-02-23T14:14:52.939Z,12.30
2019-02-23T14:18:03.726Z,12.80
2019-02-23T14:21:14.317Z,13.25
2019-02-23T14:24:21.774Z,12.45
2019-02-23T14:27:32.866Z,13.55
2019-02-23T14:30:55.339Z,12.95
2019-02-23T14:34:17.832Z,13.03
2019-02-23T14:37:09.959Z,12.55
2019-02-23T14:40:33.420Z,13.13
2019-02-23T14:43:18.939Z,14.43
2019-02-23T14:46:20.905Z,13.45
2019-02-23T14:49:27.906Z,13.05
2019-02-23T14:52:33.519Z,14.28
2019-02-23T14:55:43.748Z,13.78
2019-02-23T14:58:43.353Z,14.05
2019-02-23T15:01:30.196Z,13.43
2019-02-23T15:04:52.586Z,15.28
2019-02-23T15:08:24.158Z,14.28
2019-02-23T15:11:40.479Z,14.05
2019-02-23T15:14:49.466Z,13.90
2019-02-23T15:17:54.520Z,13.20
2019-02-23T15:21:01.750Z,13.83
2019-02-23T15:24:18.509Z,13.50
2019-02-23T15:27:16.331Z,12.93
2019-02-23T15:30:22.552Z,13.88
2019-02-23T15:33:36.335Z,14.50
2019-02-23T15:36:28.188Z,13.35
2019-02-23T15:39:53.170Z,14.10
2019-02-23T15:42:50.880Z,13.10
2019-02-23T15:45:44.317Z,14.28
2019-02-23T15:48:49.187Z,14.50
2019-02-23T15:51:18.470Z,14.30
2019-02-23T15:53:47.607Z,15.25
2019-02-23T15:56:17.357Z,15.18
2019-02-23T15:58:46.288Z,15.43
2019-02-23T16:01:15.808Z,15.45
2019-02-23T16:03:45.355Z,14.45
2019-02-23T16:06:14.389Z,15.25
2019-02-23T16:08:44.261Z,15.30
2019-02-23T16:11:15.397Z,15.43
2019-02-23T16:13:45.348Z,15.55
2019-02-23T16:16:15.404Z,15.50
2019-02-23T16:18:44.440Z,15.03
2019-02-23T16:21:14.122Z,15.05
2019-02-23T16:23:44.162Z,14.73
2019-02-23T16:26:13.706Z,15.63
2019-02-23T16:28:43.542Z,16.02
2019-02-23T16:31:12.391Z,15.43
2019-02-23T16:33:42.291Z,15.53
2019-02-23T16:36:12.678Z,16.07
2019-02-23T16:38:42.963Z,15.43
2019-02-23T16:41:16.420Z,15.43
2019-02-23T16:43:46.023Z,15.18
2019-02-23T16:46:16.680Z,14.95
2019-02-23T16:48:46.200Z,16.27
2019-02-23T16:55:08.499Z,15.17
2019-02-23T16:57:37.414Z,14.97
2019-02-23T17:00:07.276Z,16.10
2019-02-23T17:02:36.255Z,14.93
2019-02-23T17:05:06.061Z,14.53
2019-02-23T17:07:35.138Z,15.13
2019-02-23T17:10:07.771Z,14.70
2019-02-23T17:12:36.873Z,14.73
2019-02-23T17:15:06.224Z,14.47
2019-02-23T17:17:35.411Z,14.10
2019-02-23T17:20:04.667Z,13.90
2019-02-23T17:22:33.594Z,14.57
2019-02-23T17:25:02.525Z,14.40
2019-02-23T17:27:36.337Z,14.30
2019-02-23T17:30:03.703Z,13.57
2019-02-23T17:32:32.650Z,14.73
2019-02-23T17:35:01.807Z,14.27
2019-02-23T17:37:30.847Z,13.93
2019-02-23T17:40:01.330Z,14.03
2019-02-23T17:42:32.171Z,13.60
2019-02-23T17:45:01.634Z,13.20
2019-02-23T17:47:30.598Z,13.70
2019-02-23T17:49:59.637Z,13.60
2019-02-23T17:52:28.565Z,13.53
2019-02-23T17:54:57.487Z,14.90
2019-02-23T17:57:26.387Z,14.77
2019-02-23T17:59:55.303Z,15.53
2019-02-23T18:02:26.122Z,15.47
2019-02-23T18:04:58.511Z,15.93
2019-02-23T18:07:29.407Z,15.50
2019-02-23T18:09:58.596Z,14.80
2019-02-23T18:12:27.553Z,15.70
2019-02-23T18:14:56.455Z,15.27
2019-02-23T18:17:25.865Z,14.33
2019-02-23T18:19:57.393Z,14.77
2019-02-23T18:22:29.472Z,15.33
2019-02-23T18:25:00.636Z,14.97
2019-02-23T18:27:29.978Z,15.67
2019-02-23T18:30:10.571Z,15.90
2019-02-23T18:32:33.569Z,16.00
2019-02-23T18:35:04.428Z,14.97
2019-02-23T18:37:33.949Z,16.50
2019-02-23T18:40:03.407Z,15.67
2019-02-23T18:42:34.257Z,16.77
2019-02-23T18:45:04.231Z,16.03
2019-02-23T18:47:33.298Z,16.90
2019-02-23T18:50:02.577Z,16.53
2019-02-23T18:52:34.972Z,17.80
2019-02-23T18:55:04.001Z,17.63
2019-02-23T18:57:32.948Z,17.90
2019-02-23T19:00:01.884Z,17.33
2019-02-23T19:02:31.013Z,16.23
2019-02-23T19:05:00.031Z,16.33
2019-02-23T19:07:29.116Z,16.23
2019-02-23T19:09:58.205Z,15.97
2019-02-23T19:12:27.974Z,15.70
2019-02-23T19:14:57.671Z,14.33
2019-02-23T19:17:27.891Z,13.87
2019-02-23T19:19:58.656Z,15.57
2019-02-23T19:22:27.879Z,14.93
2019-02-23T19:24:56.896Z,14.23
2019-02-23T19:27:25.910Z,13.13
2019-02-23T19:29:54.961Z,13.37
2019-02-23T19:32:24.930Z,13.67
2019-02-23T19:34:54.330Z,13.77
2019-02-23T19:37:23.797Z,12.70
2019-02-23T19:39:52.795Z,12.17
2019-02-23T19:42:22.883Z,13.23
2019-02-23T19:44:53.069Z,11.67
2019-02-23T19:47:25.607Z,11.70
2019-02-23T19:50:00.343Z,11.33
2019-02-23T19:52:35.635Z,10.83
2019-02-23T19:55:04.696Z,11.00
2019-02-23T19:57:35.747Z,10.33
2019-02-23T20:00:05.481Z,10.47
2019-02-23T20:02:34.678Z,10.33
2019-02-23T20:05:04.013Z,10.20
2019-02-23T20:07:33.700Z,10.37
2019-02-23T20:10:02.747Z,10.60
2019-02-23T20:12:31.780Z,10.07
2019-02-23T20:15:01.322Z,10.57
2019-02-23T20:17:34.122Z,10.53
2019-02-23T20:20:03.080Z,11.37
2019-02-23T20:26:29.064Z,9.77
2019-02-23T20:28:58.668Z,9.70
2019-02-23T20:31:28.242Z,11.13
2019-02-23T20:33:57.609Z,10.73
2019-02-23T20:36:26.533Z,10.97
2019-02-23T20:38:55.819Z,10.47
2019-02-23T20:41:25.276Z,10.33
2019-02-23T20:43:54.531Z,10.70
2019-02-23T20:46:24.349Z,10.77
2019-02-23T20:48:53.364Z,10.40
2019-02-23T21:02:01.075Z,10.73
2019-02-23T21:04:30.073Z,10.00
2019-02-23T21:06:59.175Z,11.47
2019-02-23T21:09:31.511Z,10.10
2019-02-23T21:12:01.232Z,10.37
2019-02-23T21:14:30.813Z,10.37
2019-02-23T21:17:00.635Z,9.30
2019-02-23T21:19:29.667Z,10.30
2019-02-23T21:21:58.734Z,10.43
2019-02-23T21:24:27.564Z,9.87
2019-02-23T21:26:56.484Z,10.20
2019-02-23T21:29:25.966Z,10.33
2019-02-23T21:31:55.800Z,10.40
2019-02-23T21:34:26.611Z,10.27
2019-02-23T21:36:55.551Z,10.20
2019-02-23T21:39:24.624Z,10.73
2019-02-23T21:41:53.665Z,9.97
2019-02-23T21:44:23.572Z,9.93
2019-02-23T21:46:52.537Z,9.83
2019-02-23T21:49:24.610Z,10.30
2019-02-23T21:51:53.569Z,9.67
2019-02-23T21:54:22.795Z,8.93
2019-02-23T21:56:52.010Z,9.87
2019-02-23T21:59:24.991Z,10.07
2019-02-23T22:01:54.569Z,10.67
2019-02-23T22:04:23.821Z,10.73
2019-02-23T22:06:52.894Z,10.60
2019-02-23T22:09:23.456Z,10.23
2019-02-23T22:11:53.470Z,10.67
2019-02-23T22:14:25.717Z,11.20
2019-02-23T22:16:55.110Z,10.63
2019-02-23T22:19:28.265Z,11.03
2019-02-23T22:22:00.803Z,10.27
2019-02-23T22:24:32.647Z,10.70
2019-02-23T22:27:03.372Z,10.70
2019-02-23T22:29:33.361Z,11.47
2019-02-23T22:34:37.648Z,11.17
2019-02-23T22:37:09.960Z,10.90
2019-02-23T22:39:42.417Z,11.03
2019-02-23T22:42:11.384Z,11.00
2019-02-23T22:44:43.319Z,12.17
2019-02-23T22:47:12.482Z,13.00
2019-02-23T22:49:42.294Z,12.00
2019-02-23T22:52:11.327Z,12.60
2019-02-23T22:54:40.377Z,12.40
2019-02-23T22:57:09.593Z,11.90
2019-02-23T22:59:42.490Z,12.43
2019-02-23T23:02:11.915Z,12.07
2019-02-23T23:04:42.177Z,12.30
2019-02-23T23:07:11.075Z,12.00
2019-02-23T23:09:40.356Z,12.77
2019-02-23T23:14:47.268Z,12.00
2019-02-23T23:17:17.963Z,13.37
2019-02-23T23:19:47.222Z,12.43
2019-02-23T23:22:16.507Z,14.00
2019-02-23T23:24:45.959Z,13.30
2019-02-23T23:27:16.888Z,13.10
2019-02-23T23:29:49.197Z,13.17
2019-02-23T23:32:21.102Z,12.33
2019-02-23T23:34:50.290Z,12.40
2019-02-23T23:37:22.927Z,12.90
2019-02-23T23:39:52.029Z,12.03
2019-02-23T23:42:21.686Z,12.67
2019-02-23T23:44:50.566Z,12.93
2019-02-23T23:47:50.073Z,12.50
2019-02-23T23:50:19.740Z,12.70
2019-02-23T23:52:48.587Z,12.63
2019-02-23T23:55:17.408Z,12.43
2019-02-23T23:57:46.635Z,12.83
